Time;durP1;ratioP1;P1;durP2;ratioP2;P2;SDS_P1;SDS_P2;PMS_P1;PMS_P2;Temp;Humidity;BMP_temperature;BMP_pressure;BME280_temperature;BME280_humidity;BME280_pressure;Samples;Min_cycle;Max_cycle;Signal;HPM_P1;HPM_P2
2022/03/08 00:00:19;;;;;;;10.65;6.53;;;;;;;-0.51;67.48;99865.91;1678529;85;21001;-77
2022/03/08 00:02:46;;;;;;;12.75;6.72;;;;;;;-0.50;67.47;99862.39;1712042;83;22181;-77
2022/03/08 00:05:13;;;;;;;12.30;6.85;;;;;;;-0.50;67.51;99859.80;1711340;83;20954;-78
2022/03/08 00:07:42;;;;;;;10.60;5.75;;;;;;;-0.50;67.51;99868.88;1711471;83;21057;-78
2022/03/08 00:10:09;;;;;;;8.25;5.12;;;;;;;-0.48;67.46;99869.66;1711549;83;20993;-78
2022/03/08 00:12:36;;;;;;;8.75;5.75;;;;;;;-0.50;67.48;99868.42;1711597;82;21024;-77
2022/03/08 00:15:11;;;;;;;9.83;6.35;;;;;;;-0.50;67.49;99868.88;1711910;83;22294;-77
2022/03/08 00:17:39;;;;;;;10.48;5.78;;;;;;;-0.52;67.53;99868.11;1711464;83;21001;-79
2022/03/08 00:20:08;;;;;;;7.90;5.17;;;;;;;-0.51;67.53;99870.63;1712543;83;21548;-79
2022/03/08 00:22:36;;;;;;;7.78;4.80;;;;;;;-0.52;67.46;99872.00;1678362;85;21017;-78
2022/03/08 00:25:05;;;;;;;10.68;5.55;;;;;;;-0.55;67.46;99865.66;1678621;85;20945;-79
2022/03/08 00:27:32;;;;;;;8.85;5.25;;;;;;;-0.56;67.48;99860.08;1711338;83;21954;-78
2022/03/08 00:30:01;;;;;;;7.62;4.87;;;;;;;-0.56;67.49;99858.78;1678424;85;20941;-78
2022/03/08 00:32:28;;;;;;;8.63;5.00;;;;;;;-0.56;67.48;99853.59;1678522;85;21053;-79
2022/03/08 00:34:55;;;;;;;11.70;5.55;;;;;;;-0.54;67.52;99855.66;1678571;85;21056;-78
2022/03/08 00:37:22;;;;;;;8.60;5.30;;;;;;;-0.55;67.48;99853.98;1678629;85;21017;-77
2022/03/08 00:39:49;;;;;;;9.23;5.10;;;;;;;-0.56;67.46;99845.36;1678803;85;21843;-78
2022/03/08 00:42:16;;;;;;;10.18;5.12;;;;;;;-0.55;67.47;99838.42;1678362;85;21084;-78
2022/03/08 00:44:43;;;;;;;9.23;5.45;;;;;;;-0.53;67.40;99845.67;1678454;85;20969;-78
2022/03/08 00:47:10;;;;;;;8.33;5.40;;;;;;;-0.53;67.46;99842.63;1678202;85;21401;-78
2022/03/08 00:49:38;;;;;;;6.83;4.55;;;;;;;-0.55;67.42;99845.74;1678232;85;20966;-78
2022/03/08 00:52:05;;;;;;;7.92;5.20;;;;;;;-0.56;67.39;99842.77;1678258;85;22042;-78
2022/03/08 00:54:33;;;;;;;7.75;4.85;;;;;;;-0.61;67.41;99842.94;1713049;83;20949;-77
2022/03/08 00:57:00;;;;;;;8.65;5.15;;;;;;;-0.64;67.46;99843.08;1713290;83;21017;-78
2022/03/08 00:59:27;;;;;;;10.03;5.70;;;;;;;-0.66;67.48;99841.47;1713023;82;21021;-79
2022/03/08 01:01:54;;;;;;;9.70;5.28;;;;;;;-0.67;67.49;99842.38;1713105;83;20958;-79
2022/03/08 01:04:21;;;;;;;10.00;5.65;;;;;;;-0.68;67.45;99840.20;1713405;82;21865;-78
2022/03/08 01:06:48;;;;;;;7.50;4.58;;;;;;;-0.68;67.40;99831.13;1712947;82;21041;-78
2022/03/08 01:09:15;;;;;;;8.63;5.40;;;;;;;-0.68;67.47;99835.48;1713022;83;20966;-79
2022/03/08 01:11:43;;;;;;;8.18;5.67;;;;;;;-0.68;67.50;99835.02;1713053;83;21014;-78
2022/03/08 01:14:10;;;;;;;8.70;5.40;;;;;;;-0.67;67.51;99832.84;1713032;83;21013;-79
2022/03/08 01:16:37;;;;;;;7.95;5.05;;;;;;;-0.65;67.54;99837.51;1678615;84;21965;-78
2022/03/08 01:19:05;;;;;;;8.68;5.70;;;;;;;-0.64;67.56;99834.46;1678220;85;20986;-79
2022/03/08 01:21:37;;;;;;;8.93;5.33;;;;;;;-0.64;67.52;99835.75;1678518;84;20946;-78
2022/03/08 01:24:05;;;;;;;8.80;5.33;;;;;;;-0.64;67.41;99838.35;1678310;85;20970;-79
2022/03/08 01:26:32;;;;;;;9.73;5.67;;;;;;;-0.68;67.33;99836.31;1678325;84;20965;-78
2022/03/08 01:28:59;;;;;;;7.25;4.90;;;;;;;-0.69;67.36;99839.82;1678309;85;21982;-78
2022/03/08 01:31:27;;;;;;;9.95;5.33;;;;;;;-0.69;67.34;99838.98;1678140;85;21060;-78
2022/03/08 01:33:57;;;;;;;8.15;5.30;;;;;;;-0.69;67.35;99832.50;1678233;84;21009;-78
2022/03/08 01:36:25;;;;;;;8.23;5.42;;;;;;;-0.68;67.37;99839.37;1678317;85;21403;-78
2022/03/08 01:38:52;;;;;;;6.83;5.10;;;;;;;-0.67;67.32;99831.55;1678252;85;20957;-78
2022/03/08 01:41:19;;;;;;;9.90;5.47;;;;;;;-0.65;67.27;99840.55;1678522;85;21907;-78
2022/03/08 01:43:47;;;;;;;9.60;5.08;;;;;;;-0.68;67.17;99836.31;1678248;84;21092;-78
2022/03/08 01:46:19;;;;;;;8.45;4.67;;;;;;;-0.70;67.22;99838.59;1678376;84;20972;-78
2022/03/08 01:48:46;;;;;;;10.48;5.70;;;;;;;-0.71;67.18;99837.75;1712819;82;21542;-78
2022/03/08 01:51:14;;;;;;;8.10;5.10;;;;;;;-0.71;67.15;99844.69;1712765;82;20982;-78
2022/03/08 01:53:41;;;;;;;9.30;5.30;;;;;;;-0.71;67.15;99837.75;1678483;84;21923;-79
2022/03/08 01:56:08;;;;;;;10.35;5.62;;;;;;;-0.72;67.14;99834.77;1678381;85;21104;-79
2022/03/08 01:58:37;;;;;;;8.43;4.85;;;;;;;-0.74;67.16;99839.19;1678267;85;21080;-78
2022/03/08 02:01:05;;;;;;;8.90;5.30;;;;;;;-0.74;67.13;99839.19;1678262;85;20981;-78
2022/03/08 02:03:33;;;;;;;8.45;5.40;;;;;;;-0.73;67.07;99834.84;1678354;85;20949;-78
2022/03/08 02:06:00;;;;;;;9.58;5.33;;;;;;;-0.75;67.08;99834.07;1678422;85;21839;-78
2022/03/08 02:08:27;;;;;;;8.53;5.20;;;;;;;-0.77;67.06;99834.14;1678143;85;20924;-79
2022/03/08 02:10:54;;;;;;;9.63;5.58;;;;;;;-0.76;67.09;99834.98;1678213;85;20977;-78
2022/03/08 02:13:21;;;;;;;9.03;5.75;;;;;;;-0.75;67.12;99833.61;1678289;85;20968;-78
2022/03/08 02:15:50;;;;;;;14.33;5.35;;;;;;;-0.75;67.13;99843.14;1678547;85;21072;-79
2022/03/08 02:18:17;;;;;;;8.18;5.28;;;;;;;-0.76;67.12;99833.69;1703178;83;21938;-78
2022/03/08 02:20:44;;;;;;;8.35;4.80;;;;;;;-0.77;67.16;99838.03;1675727;85;20949;-79
2022/03/08 02:23:11;;;;;;;8.03;4.65;;;;;;;-0.77;67.16;99838.45;1676210;85;20962;-78
2022/03/08 02:25:38;;;;;;;8.00;4.70;;;;;;;-0.79;67.15;99838.52;1676460;85;20984;-78
2022/03/08 02:28:06;;;;;;;9.03;5.00;;;;;;;-0.78;67.21;99843.25;1703351;83;20985;-78
2022/03/08 02:30:33;;;;;;;10.08;4.92;;;;;;;-0.79;67.18;99841.11;1712335;82;21975;-78
2022/03/08 02:33:01;;;;;;;9.28;4.80;;;;;;;-0.79;67.24;99843.70;1711214;82;20970;-77
2022/03/08 02:35:30;;;;;;;9.30;5.05;;;;;;;-0.78;67.20;99847.98;1713016;83;21525;-78
2022/03/08 02:38:00;;;;;;;7.92;5.10;;;;;;;-0.78;67.21;99840.66;1712924;83;21092;-78
2022/03/08 02:40:30;;;;;;;8.70;4.80;;;;;;;-0.78;67.25;99844.55;1714311;83;21021;-77
2022/03/08 02:42:57;;;;;;;8.75;5.33;;;;;;;-0.79;67.28;99848.89;1711684;83;21921;-78
2022/03/08 02:45:24;;;;;;;7.65;4.20;;;;;;;-0.79;67.27;99853.23;1678475;84;20941;-77
2022/03/08 02:47:51;;;;;;;8.15;4.37;;;;;;;-0.79;67.31;99852.78;1678139;85;20956;-78
2022/03/08 02:50:21;;;;;;;8.28;4.50;;;;;;;-0.77;67.37;99859.19;1712936;83;21044;-78
2022/03/08 02:52:51;;;;;;;8.13;4.72;;;;;;;-0.76;67.48;99858.31;1712859;83;21038;-77
2022/03/08 02:55:20;;;;;;;9.95;5.03;;;;;;;-0.80;67.61;99861.92;1678466;85;21897;-78
2022/03/08 02:57:47;;;;;;;6.72;4.67;;;;;;;-0.83;67.89;99859.02;1678064;85;21503;-77
2022/03/08 03:00:16;;;;;;;6.95;4.65;;;;;;;-0.85;68.16;99863.87;1712912;83;20957;-79
2022/03/08 03:02:43;;;;;;;7.10;5.17;;;;;;;-0.89;68.52;99859.25;1713137;82;21071;-78
2022/03/08 03:05:10;;;;;;;8.13;4.75;;;;;;;-0.92;68.87;99857.63;1713048;83;21032;-78
2022/03/08 03:07:39;;;;;;;7.97;5.03;;;;;;;-0.94;69.05;99863.34;1678530;84;21986;-78
2022/03/08 03:10:14;;;;;;;7.60;4.67;;;;;;;-0.93;69.27;99859.84;1678126;84;20944;-78
2022/03/08 03:12:41;;;;;;;7.15;4.35;;;;;;;-0.94;69.39;99862.05;1678411;85;20965;-78
2022/03/08 03:15:10;;;;;;;9.00;5.20;;;;;;;-0.95;69.62;99864.25;1678077;85;21047;-78
2022/03/08 03:17:38;;;;;;;7.78;4.50;;;;;;;-0.97;69.72;99866.03;1712976;82;21013;-78
2022/03/08 03:20:06;;;;;;;8.45;4.70;;;;;;;-0.98;69.80;99859.62;1713162;82;21781;-78
2022/03/08 03:22:35;;;;;;;7.05;4.72;;;;;;;-0.99;69.87;99862.67;1712922;83;21456;-78
2022/03/08 03:25:03;;;;;;;8.08;4.97;;;;;;;-0.96;69.92;99870.80;1678215;84;20957;-78
2022/03/08 03:27:30;;;;;;;9.20;5.25;;;;;;;-0.95;69.94;99868.59;1678443;84;21052;-77
2022/03/08 03:29:57;;;;;;;8.03;5.00;;;;;;;-0.97;69.98;99863.44;1678305;84;21048;-78
2022/03/08 03:32:24;;;;;;;6.80;4.37;;;;;;;-0.96;69.97;99859.97;1678613;85;21965;-78
2022/03/08 03:34:51;;;;;;;7.35;4.60;;;;;;;-0.95;70.01;99866.00;1678625;85;20989;-77
2022/03/08 03:37:18;;;;;;;10.28;5.50;;;;;;;-0.95;69.98;99865.55;1678087;85;21032;-77
2022/03/08 03:39:47;;;;;;;8.05;4.70;;;;;;;-0.91;69.97;99868.84;1678328;85;21087;-77
2022/03/08 03:42:14;;;;;;;7.53;4.55;;;;;;;-0.91;69.96;99868.39;1678322;85;21075;-78
2022/03/08 03:44:41;;;;;;;9.60;5.00;;;;;;;-0.93;69.98;99860.30;1678155;85;21967;-78
2022/03/08 03:47:09;;;;;;;7.10;4.45;;;;;;;-0.93;70.00;99859.00;1678335;85;21008;-77
2022/03/08 03:49:36;;;;;;;6.20;4.20;;;;;;;-0.93;70.01;99862.43;1678896;85;21052;-78
2022/03/08 03:52:04;;;;;;;8.28;4.20;;;;;;;-0.94;70.04;99856.86;1678295;84;21029;-78
2022/03/08 03:54:31;;;;;;;6.95;4.55;;;;;;;-0.96;70.04;99852.65;1678046;85;21507;-78
2022/03/08 03:56:58;;;;;;;7.40;4.60;;;;;;;-0.96;70.03;99852.20;1678668;85;21874;-77
2022/03/08 03:59:25;;;;;;;7.33;4.95;;;;;;;-0.94;70.01;99844.35;1678064;85;21436;-78
2022/03/08 04:01:52;;;;;;;9.15;4.95;;;;;;;-0.92;69.97;99847.27;1677937;85;20961;-78
2022/03/08 04:04:19;;;;;;;9.05;4.72;;;;;;;-0.91;69.96;99860.61;1678123;85;21044;-79
2022/03/08 04:06:46;;;;;;;7.33;4.60;;;;;;;-0.92;69.98;99858.09;1678351;85;21116;-77
2022/03/08 04:09:14;;;;;;;8.53;4.87;;;;;;;-0.94;69.98;99862.05;1713193;82;21950;-78
2022/03/08 04:11:42;;;;;;;8.45;4.87;;;;;;;-0.97;69.86;99854.37;1712881;83;20935;-78
2022/03/08 04:14:09;;;;;;;8.05;4.65;;;;;;;-0.97;69.78;99856.13;1713314;82;21021;-79
2022/03/08 04:16:38;;;;;;;8.38;4.25;;;;;;;-0.96;69.72;99858.67;1713023;82;21001;-78
2022/03/08 04:19:05;;;;;;;9.20;4.47;;;;;;;-0.94;69.70;99854.72;1712984;83;20966;-79
2022/03/08 04:21:32;;;;;;;8.98;5.10;;;;;;;-0.93;69.63;99852.52;1678099;85;21933;-79
2022/03/08 04:23:59;;;;;;;6.78;4.37;;;;;;;-0.93;69.52;99846.03;1678648;85;21047;-78
2022/03/08 04:26:27;;;;;;;7.47;4.95;;;;;;;-0.92;69.42;99857.63;1677953;85;21490;-78
2022/03/08 04:28:53;;;;;;;8.90;4.67;;;;;;;-0.92;69.37;99853.75;1678635;85;21395;-79
2022/03/08 04:31:21;;;;;;;7.15;4.35;;;;;;;-0.91;69.37;99854.59;1679582;85;21053;-78
2022/03/08 04:33:48;;;;;;;37.95;19.10;;;;;;;-0.90;69.33;99858.41;1678929;85;22355;-78
2022/03/08 04:36:15;;;;;;;60.38;33.90;;;;;;;-0.91;69.31;99855.88;1669829;86;20979;-78
2022/03/08 04:38:43;;;;;;;36.93;21.85;;;;;;;-0.92;69.24;99860.23;1713164;82;21025;-78
2022/03/08 04:41:10;;;;;;;24.12;12.60;;;;;;;-0.89;69.17;99863.14;1713126;83;21006;-78
2022/03/08 04:43:38;;;;;;;27.90;16.27;;;;;;;-0.90;69.06;99862.30;1713140;82;21547;-78
2022/03/08 04:46:06;;;;;;;40.60;23.22;;;;;;;-0.92;69.03;99862.81;1712674;82;21446;-78
2022/03/08 04:48:32;;;;;;;139.07;62.05;;;;;;;-0.91;68.94;99859.77;1712020;83;21373;-78
2022/03/08 04:51:00;;;;;;;127.40;57.88;;;;;;;-0.92;68.92;99861.98;1712038;83;21519;-79
2022/03/08 04:53:27;;;;;;;385.02;126.35;;;;;;;-0.91;68.84;99864.50;1711761;82;21271;-78
2022/03/08 04:55:54;;;;;;;717.75;338.73;;;;;;;-0.90;68.82;99861.00;1711564;83;20950;-78
2022/03/08 04:58:21;;;;;;;253.92;105.75;;;;;;;-0.89;68.80;99861.39;1711237;83;21914;-78
2022/03/08 05:00:48;;;;;;;277.77;122.50;;;;;;;-0.87;68.77;99859.60;1710808;83;21528;-78
2022/03/08 05:03:16;;;;;;;372.33;168.40;;;;;;;-0.85;68.71;99863.42;1711697;82;20954;-78
2022/03/08 05:05:43;;;;;;;241.23;107.15;;;;;;;-0.85;68.64;99860.83;1711629;82;21085;-78
2022/03/08 05:08:10;;;;;;;115.08;52.65;;;;;;;-0.83;68.47;99863.36;1710801;82;21069;-77
2022/03/08 05:10:38;;;;;;;121.22;63.28;;;;;;;-0.81;68.51;99866.27;1710722;82;21957;-78
2022/03/08 05:13:06;;;;;;;37.17;20.95;;;;;;;-0.78;68.41;99864.84;1711708;83;21096;-78
2022/03/08 05:15:35;;;;;;;15.08;7.90;;;;;;;-0.78;68.36;99870.02;1711986;83;21009;-78
2022/03/08 05:18:03;;;;;;;8.90;5.10;;;;;;;-0.77;68.32;99865.67;1712287;82;20970;-79
2022/03/08 05:20:32;;;;;;;6.62;4.47;;;;;;;-0.76;68.29;99865.64;1676317;85;21380;-78
2022/03/08 05:23:00;;;;;;;9.20;4.28;;;;;;;-0.76;68.22;99865.64;1710716;83;21870;-78
2022/03/08 05:25:31;;;;;;;22.48;14.78;;;;;;;-0.73;68.05;99871.98;1676520;85;21095;-78
2022/03/08 05:27:59;;;;;;;95.05;50.92;;;;;;;-0.72;67.92;99878.02;1711688;83;21041;-78
2022/03/08 05:30:30;;;;;;;43.68;25.00;;;;;;;-0.73;67.79;99875.03;1711665;83;20946;-78
2022/03/08 05:32:54;;;;;;;38.15;21.60;;;;;;;-0.75;67.76;99880.75;1711087;83;20954;-78
2022/03/08 05:35:22;;;;;;;41.33;24.18;;;;;;;-0.77;67.72;99880.81;1710685;82;21920;-78
2022/03/08 05:37:49;;;;;;;23.98;14.07;;;;;;;-0.78;67.69;99880.39;1710812;84;21005;-78
2022/03/08 05:40:16;;;;;;;13.20;7.92;;;;;;;-0.81;67.65;99881.83;1711724;83;21006;-77
2022/03/08 05:42:44;;;;;;;10.00;5.83;;;;;;;-0.83;67.64;99884.94;1711741;83;20958;-79
2022/03/08 05:45:11;;;;;;;7.87;4.80;;;;;;;-0.84;67.65;99881.96;1677076;85;21052;-77
2022/03/08 05:47:39;;;;;;;8.73;4.65;;;;;;;-0.85;67.61;99883.32;1678226;84;21959;-78
2022/03/08 05:50:07;;;;;;;8.83;5.70;;;;;;;-0.85;67.62;99890.65;1712440;83;20957;-77
2022/03/08 05:52:35;;;;;;;36.15;22.93;;;;;;;-0.87;67.67;99886.83;1678069;85;21006;-77
2022/03/08 05:55:02;;;;;;;19.87;12.45;;;;;;;-0.85;67.64;99889.80;1712464;82;20994;-78
2022/03/08 05:57:30;;;;;;;38.63;21.05;;;;;;;-0.84;67.65;99889.73;1711625;83;21013;-77
2022/03/08 05:59:57;;;;;;;10.88;6.03;;;;;;;-0.85;67.78;99894.53;1713323;83;22000;-78
2022/03/08 06:02:24;;;;;;;17.25;11.45;;;;;;;-0.81;67.87;99892.66;1712727;83;20993;-78
2022/03/08 06:04:51;;;;;;;12.03;7.65;;;;;;;-0.76;67.95;99891.57;1713362;83;20989;-78
2022/03/08 06:07:21;;;;;;;12.80;7.20;;;;;;;-0.69;67.97;99889.09;1712815;83;21496;-78
2022/03/08 06:09:47;;;;;;;9.58;5.78;;;;;;;-0.63;67.94;99892.74;1678427;85;21052;-78
2022/03/08 06:12:15;;;;;;;7.85;4.67;;;;;;;-0.58;67.93;99893.84;1678509;85;21925;-77
2022/03/08 06:14:42;;;;;;;9.45;4.78;;;;;;;-0.52;67.88;99888.41;1680060;85;21009;-78
2022/03/08 06:17:11;;;;;;;7.80;4.78;;;;;;;-0.46;67.78;99894.65;1681593;84;21056;-77
2022/03/08 06:19:40;;;;;;;8.35;5.00;;;;;;;-0.38;67.76;99894.33;1715977;82;20994;-79
2022/03/08 06:22:07;;;;;;;9.75;5.22;;;;;;;-0.27;67.75;99900.36;1716021;82;21033;-78
2022/03/08 06:24:34;;;;;;;7.20;4.40;;;;;;;-0.21;67.64;99896.19;1703760;83;21932;-78
2022/03/08 06:27:01;;;;;;;10.43;5.22;;;;;;;-0.14;67.47;99904.11;1715723;83;20990;-78
2022/03/08 06:29:30;;;;;;;10.43;4.87;;;;;;;-0.11;67.30;99900.91;1680618;85;21038;-78
2022/03/08 06:31:57;;;;;;;8.20;5.10;;;;;;;-0.10;67.24;99905.19;1716094;82;21013;-78
2022/03/08 06:34:24;;;;;;;8.28;4.87;;;;;;;-0.05;67.32;99903.26;1713785;84;20967;-77
2022/03/08 06:36:51;;;;;;;9.10;5.15;;;;;;;0.04;67.31;99903.77;1714123;83;21288;-77
2022/03/08 06:39:18;;;;;;;9.20;4.53;;;;;;;0.13;67.31;99904.67;1712175;83;21644;-77
2022/03/08 06:41:45;;;;;;;8.40;4.55;;;;;;;0.25;67.37;99902.82;1713967;82;20946;-77
2022/03/08 06:44:13;;;;;;;10.25;5.10;;;;;;;0.37;67.21;99897.06;1715812;83;20955;-78
2022/03/08 06:46:44;;;;;;;7.90;4.30;;;;;;;0.48;67.12;99903.94;1714542;83;20982;-78
2022/03/08 06:49:09;;;;;;;7.90;4.12;;;;;;;0.62;67.18;99902.45;1680065;85;22334;-78
2022/03/08 06:51:37;;;;;;;5.70;3.58;;;;;;;0.72;66.59;99905.02;1678462;85;20961;-78
2022/03/08 06:54:06;;;;;;;5.90;3.60;;;;;;;0.81;66.28;99899.39;1678873;85;21005;-77
2022/03/08 06:56:34;;;;;;;8.13;3.72;;;;;;;0.90;66.13;99887.26;1678348;84;20969;-79
2022/03/08 06:59:01;;;;;;;6.62;3.60;;;;;;;0.97;65.71;99889.95;1678517;85;21065;-78
2022/03/08 07:01:29;;;;;;;6.97;3.75;;;;;;;0.99;65.70;99892.02;1678469;85;21993;-78
2022/03/08 07:03:58;;;;;;;6.62;3.98;;;;;;;1.01;65.18;99887.58;1678406;85;21032;-80
2022/03/08 07:06:25;;;;;;;5.72;3.80;;;;;;;1.04;65.09;99891.33;1678646;84;21064;-78
2022/03/08 07:08:53;;;;;;;6.85;4.35;;;;;;;1.11;64.94;99888.83;1678483;85;20964;-78
2022/03/08 07:11:20;;;;;;;6.00;3.58;;;;;;;1.23;65.08;99886.08;1678511;84;21551;-78
2022/03/08 07:13:48;;;;;;;8.35;4.60;;;;;;;1.34;64.71;99889.00;1678724;85;21809;-78
2022/03/08 07:16:15;;;;;;;7.80;4.47;;;;;;;1.37;64.44;99882.81;1678369;85;20970;-78
2022/03/08 07:18:42;;;;;;;6.55;4.05;;;;;;;1.39;64.12;99879.67;1678635;84;21435;-79
2022/03/08 07:21:09;;;;;;;9.53;4.75;;;;;;;1.42;64.06;99891.22;1678470;85;21004;-80
2022/03/08 07:23:38;;;;;;;8.50;4.22;;;;;;;1.49;63.88;99882.20;1678437;85;21016;-77
2022/03/08 07:26:05;;;;;;;7.53;3.90;;;;;;;1.57;63.84;99883.12;1678754;85;21938;-77
2022/03/08 07:28:32;;;;;;;6.72;3.95;;;;;;;1.67;63.61;99877.84;1678664;84;20941;-80
2022/03/08 07:31:00;;;;;;;6.78;4.08;;;;;;;1.78;63.59;99882.03;1678386;85;21006;-80
2022/03/08 07:33:28;;;;;;;5.20;3.62;;;;;;;1.86;63.04;99875.14;1678885;85;21483;-79
2022/03/08 07:35:55;;;;;;;6.45;3.60;;;;;;;1.96;62.35;99872.44;1713232;83;21428;-79
2022/03/08 07:38:23;;;;;;;5.65;3.00;;;;;;;2.05;61.69;99873.72;1678720;85;22776;-79
2022/03/08 07:40:52;;;;;;;5.15;3.35;;;;;;;2.12;61.22;99867.25;1678381;85;21045;-79
2022/03/08 07:43:21;;;;;;;4.60;3.30;;;;;;;2.25;61.33;99865.23;1678463;85;21049;-79
2022/03/08 07:45:48;;;;;;;6.03;3.65;;;;;;;2.37;60.79;99877.22;1678256;85;21028;-78
2022/03/08 07:48:15;;;;;;;5.75;3.25;;;;;;;2.21;59.85;99867.60;1678134;84;21013;-79
2022/03/08 07:50:43;;;;;;;8.33;3.95;;;;;;;2.05;59.82;99871.95;1712700;83;22462;-79
2022/03/08 07:53:10;;;;;;;6.75;3.45;;;;;;;1.91;59.89;99876.56;1712191;83;21048;-79
2022/03/08 07:55:37;;;;;;;7.72;3.65;;;;;;;1.84;60.17;99867.41;1713068;83;21052;-79
2022/03/08 07:58:05;;;;;;;6.20;3.87;;;;;;;1.72;60.33;99870.16;1712311;83;21493;-80
2022/03/08 08:00:35;;;;;;;6.08;3.70;;;;;;;1.75;60.92;99869.19;1677489;85;21090;-80
2022/03/08 08:03:03;;;;;;;6.15;3.45;;;;;;;1.84;60.97;99874.38;1677900;85;22030;-79
2022/03/08 08:05:33;;;;;;;5.92;3.42;;;;;;;1.94;60.78;99875.12;1712882;82;21057;-79
2022/03/08 08:08:01;;;;;;;6.55;3.58;;;;;;;2.00;60.58;99871.34;1713423;82;21444;-80
2022/03/08 08:10:28;;;;;;;5.42;3.27;;;;;;;2.10;60.62;99870.41;1676110;85;21067;-79
2022/03/08 08:12:56;;;;;;;6.78;3.40;;;;;;;2.16;60.19;99867.48;1712883;83;20970;-79
2022/03/08 08:15:24;;;;;;;5.17;3.35;;;;;;;2.15;59.46;99871.86;1713035;83;21860;-80
2022/03/08 08:17:51;;;;;;;4.67;3.10;;;;;;;2.19;59.30;99868.61;1711946;83;20986;-79
2022/03/08 08:20:22;;;;;;;4.62;2.80;;;;;;;2.27;59.37;99865.14;1712671;83;21006;-79
2022/03/08 08:22:52;;;;;;;4.30;2.50;;;;;;;2.37;59.05;99857.67;1701350;83;21017;-79
2022/03/08 08:25:21;;;;;;;4.22;2.70;;;;;;;2.44;58.76;99861.64;1678200;84;21024;-79
2022/03/08 08:27:51;;;;;;;4.78;2.87;;;;;;;2.45;57.93;99868.07;1712472;83;21887;-80
2022/03/08 08:30:18;;;;;;;3.70;2.60;;;;;;;2.46;57.52;99863.23;1678366;85;21517;-77
2022/03/08 08:32:46;;;;;;;10.32;3.15;;;;;;;2.45;56.92;99865.92;1711389;83;21423;-80
2022/03/08 08:35:15;;;;;;;4.62;2.65;;;;;;;2.46;57.10;99863.23;1678327;85;20976;-78
2022/03/08 08:37:42;;;;;;;5.55;2.98;;;;;;;2.55;57.39;99863.20;1711400;83;20970;-78
2022/03/08 08:40:11;;;;;;;8.13;3.12;;;;;;;2.61;57.01;99860.27;1678643;85;22184;-79
2022/03/08 08:42:39;;;;;;;4.33;2.83;;;;;;;2.67;57.16;99857.30;1712828;83;21006;-78
2022/03/08 08:45:08;;;;;;;5.60;3.22;;;;;;;2.66;56.35;99856.92;1678599;84;20968;-79
2022/03/08 08:47:36;;;;;;;5.20;2.90;;;;;;;2.66;56.92;99857.39;1711788;82;20978;-79
2022/03/08 08:50:05;;;;;;;5.55;3.20;;;;;;;2.75;56.41;99854.28;1676378;85;20966;-79
2022/03/08 08:52:33;;;;;;;5.78;3.02;;;;;;;2.75;56.48;99860.33;1710792;83;21842;-79
2022/03/08 08:55:02;;;;;;;6.12;3.00;;;;;;;2.79;56.01;99858.39;1700686;83;20959;-78
2022/03/08 08:57:29;;;;;;;5.40;2.90;;;;;;;2.83;56.16;99859.45;1710798;84;21432;-79
2022/03/08 08:59:56;;;;;;;5.28;3.00;;;;;;;2.94;55.94;99860.62;1710718;82;20974;-79
2022/03/08 09:02:23;;;;;;;8.63;3.20;;;;;;;2.97;55.15;99856.52;1711557;83;21042;-79
2022/03/08 09:04:50;;;;;;;19.45;8.93;;;;;;;3.01;55.27;99860.19;1712175;82;22450;-79
2022/03/08 09:07:17;;;;;;;8.00;3.77;;;;;;;3.04;55.58;99859.17;1710671;82;21077;-79
2022/03/08 09:09:47;;;;;;;7.45;4.17;;;;;;;3.06;55.71;99864.67;1676613;85;21001;-79
2022/03/08 09:12:13;;;;;;;10.60;5.60;;;;;;;3.05;56.05;99872.59;1711276;83;21375;-80
2022/03/08 09:14:43;;;;;;;7.17;4.03;;;;;;;3.02;56.05;99868.39;1676701;84;21033;-79
2022/03/08 09:17:10;;;;;;;12.13;5.25;;;;;;;2.94;55.52;99871.05;1676621;85;21853;-78
2022/03/08 09:19:38;;;;;;;9.38;4.92;;;;;;;2.84;55.66;99872.87;1676427;85;21508;-79
2022/03/08 09:22:05;;;;;;;9.85;5.17;;;;;;;2.79;56.59;99879.25;1677175;85;21009;-78
2022/03/08 09:24:35;;;;;;;6.42;3.95;;;;;;;2.76;56.37;99876.36;1678543;85;21001;-79
2022/03/08 09:27:01;;;;;;;5.37;3.35;;;;;;;2.74;56.33;99881.28;1678407;84;21077;-78
2022/03/08 09:29:28;;;;;;;5.25;3.77;;;;;;;2.73;55.67;99873.09;1678506;85;21959;-79
2022/03/08 09:31:56;;;;;;;6.40;3.22;;;;;;;2.72;55.50;99871.41;1678512;85;20969;-79
2022/03/08 09:34:23;;;;;;;6.28;4.03;;;;;;;2.71;56.24;99873.18;1678817;85;21171;-79
2022/03/08 09:36:50;;;;;;;6.35;4.12;;;;;;;2.75;56.60;99870.77;1678528;85;21021;-78
2022/03/08 09:39:17;;;;;;;6.30;4.03;;;;;;;2.89;56.88;99864.77;1678518;85;21470;-79
2022/03/08 09:41:44;;;;;;;4.47;3.08;;;;;;;3.07;56.52;99868.95;1678771;85;22853;-79
2022/03/08 09:44:12;;;;;;;5.10;3.27;;;;;;;3.27;55.77;99860.45;1678809;85;21032;-79
2022/03/08 09:46:41;;;;;;;8.80;4.85;;;;;;;3.48;55.04;99862.31;1678513;84;21503;-79
2022/03/08 09:49:08;;;;;;;10.63;6.60;;;;;;;3.66;54.25;99861.20;1678319;85;20957;-79
2022/03/08 09:51:40;;;;;;;5.80;3.85;;;;;;;3.81;54.11;99862.92;1660714;85;20981;-80
2022/03/08 09:54:07;;;;;;;5.85;3.77;;;;;;;3.97;54.15;99868.92;1679226;85;21927;-80
2022/03/08 09:56:35;;;;;;;5.90;3.45;;;;;;;4.02;54.03;99874.70;1678026;85;20985;-79
2022/03/08 09:59:02;;;;;;;6.60;3.50;;;;;;;3.92;55.69;99867.51;1678303;85;20997;-80
2022/03/08 10:01:29;;;;;;;5.37;3.50;;;;;;;3.58;56.78;99871.30;1678121;85;21449;-78
2022/03/08 10:03:57;;;;;;;5.97;3.75;;;;;;;3.25;58.09;99875.38;1678265;85;20973;-80
2022/03/08 10:06:27;;;;;;;7.17;3.85;;;;;;;2.94;59.16;99881.48;1678534;85;22808;-79
2022/03/08 10:09:12;;;;;;;4.87;3.30;;;;;;;2.57;60.42;99887.41;1632862;85;20989;-79
2022/03/08 10:11:39;;;;;;;5.28;3.30;;;;;;;2.19;61.83;99894.67;1678393;85;21060;-79
2022/03/08 10:14:14;;;;;;;4.45;2.85;;;;;;;1.84;62.66;99893.91;1713069;82;21089;-79
2022/03/08 10:16:48;;;;;;;3.77;2.55;;;;;;;1.63;64.04;99898.42;1713505;82;21056;-78
2022/03/08 10:19:13;;;;;;;4.92;2.60;;;;;;;1.41;64.81;99894.29;1678046;85;21959;-79
2022/03/08 10:21:51;;;;;;;4.53;2.47;;;;;;;1.26;65.57;99889.85;1678190;85;21008;-78
2022/03/08 10:24:32;;;;;;;3.05;2.20;;;;;;;1.15;65.89;99893.41;1678317;85;21092;-79
2022/03/08 10:27:05;;;;;;;2.98;2.33;;;;;;;1.10;66.87;99889.75;1678497;85;20998;-78
2022/03/08 10:29:35;;;;;;;;;;;;;;;1.07;67.24;99891.66;1680802;85;21020;-78
2022/03/08 10:32:17;;;;;;;4.45;2.40;;;;;;;1.11;67.32;99894.03;1670343;86;21920;-78
2022/03/08 10:34:45;;;;;;;4.53;2.72;;;;;;;1.20;67.85;99892.74;1663462;85;21085;-77
2022/03/08 10:37:19;;;;;;;6.30;3.83;;;;;;;1.27;67.78;99888.09;1663447;85;20987;-77
2022/03/08 10:40:00;;;;;;;6.35;4.08;;;;;;;1.36;67.87;99885.88;1663377;86;20983;-78
2022/03/08 10:42:30;;;;;;;5.17;3.02;;;;;;;1.58;68.06;99884.80;1663576;85;20970;-78
2022/03/08 10:45:16;;;;;;;5.37;3.17;;;;;;;1.83;67.75;99882.62;1663174;85;22443;-79
2022/03/08 10:47:51;;;;;;;5.03;2.90;;;;;;;2.05;67.67;99873.27;1672074;85;20962;-78
2022/03/08 10:50:23;;;;;;;4.00;2.87;;;;;;;2.27;67.25;99868.59;1666572;86;21097;-77
2022/03/08 10:52:52;;;;;;;4.70;3.08;;;;;;;2.46;67.17;99876.27;1663503;86;21014;-77
2022/03/08 10:55:25;;;;;;;3.65;2.15;;;;;;;2.63;66.32;99872.75;1664106;85;21023;-79
2022/03/08 10:58:01;;;;;;;3.47;2.20;;;;;;;2.71;65.45;99869.27;1664978;86;21993;-78
2022/03/08 11:00:32;;;;;;;4.20;2.70;;;;;;;2.70;65.03;99863.67;1663406;86;21133;-78
2022/03/08 11:03:03;;;;;;;5.12;2.60;;;;;;;2.74;64.58;99869.09;1663647;86;21046;-78
2022/03/08 11:05:38;;;;;;;4.35;2.35;;;;;;;2.83;64.39;99864.67;1663335;86;21063;-78
2022/03/08 11:08:07;;;;;;;3.90;2.30;;;;;;;2.94;63.55;99867.14;1644546;86;21176;-79
2022/03/08 11:10:34;;;;;;;3.10;1.95;;;;;;;2.95;63.16;99861.83;1663422;86;22122;-78
2022/03/08 11:13:01;;;;;;;4.95;2.60;;;;;;;3.00;62.76;99856.37;1663265;86;21033;-78
2022/03/08 11:15:31;;;;;;;2.65;1.90;;;;;;;3.05;62.61;99855.63;1663382;86;21025;-78
2022/03/08 11:17:59;;;;;;;2.65;1.70;;;;;;;3.22;62.23;99856.83;1663378;85;21069;-78
2022/03/08 11:20:28;;;;;;;3.35;1.90;;;;;;;3.42;61.36;99858.28;1663420;85;21054;-79
2022/03/08 11:22:57;;;;;;;4.03;2.05;;;;;;;3.52;59.80;99859.89;1663477;86;22586;-79
2022/03/08 11:25:31;;;;;;;2.87;1.90;;;;;;;3.49;59.71;99868.75;1663340;85;21010;-79
2022/03/08 11:27:59;;;;;;;3.00;2.00;;;;;;;3.32;60.68;99876.71;1663456;86;21563;-79
2022/03/08 11:30:31;;;;;;;3.00;1.50;;;;;;;2.94;62.13;99877.58;1644464;86;20986;-78
2022/03/08 11:33:21;;;;;;;1.20;0.90;;;;;;;2.45;62.47;99881.10;1662630;85;21045;-78
2022/03/08 11:36:01;;;;;;;1.00;0.70;;;;;;;2.01;62.74;99879.08;1663703;86;21972;-77
2022/03/08 11:38:28;;;;;;;0.90;0.70;;;;;;;1.68;63.32;99879.05;1663706;86;21082;-79